Latest Weather Observations for Norah Head

IDN60901

Issued at 9:35 pm EST Friday 22 August 2014 (issued every 10 minutes, with the page automatically refreshed every 10 minutes)

About weather observations | Map of Sydney area stations | Latest observations for Sydney area | Other Formats
Station Details ID: 061366 Name: NORAH HEAD AWS Lat: -33.28 Lon: 151.58 Height: 18.8 m
Data from the previous 72 hours. | See also: Recent months at Norah Head
Date/Time
EST
Tmp

°C
App
Tmp
°C
Dew
Point
°C
Rel
Hum
%
Delta-T

°C
Wind Press
QNH
hPa
Press
MSL
hPa
Rain
since
9 am
mm
Dir
 
Spd
km/h
Gust
km/h
Spd
kts
Gust
kts
22/09:30pm 15.8 14.0 12.0 78 2.1 E 13 22 7 12 1030.1 - 0.2
22/09:00pm 15.6 13.7 11.8 78 2.0 ESE 13 15 7 8 1030.2 1030.2 0.2
22/08:30pm 15.8 13.7 12.5 81 1.8 E 15 17 8 9 1030.3 - 0.2
22/08:00pm 15.3 13.0 11.7 79 1.9 SE 15 19 8 10 1029.9 1029.9 0.2
22/07:30pm 15.3 12.6 11.7 79 1.9 SSE 17 19 9 10 1029.7 - 0.2
22/07:00pm 15.3 12.3 11.9 80 1.8 SSE 19 20 10 11 1029.6 1029.6 0.2
22/06:30pm 15.3 12.3 12.1 81 1.7 SSE 19 22 10 12 1029.4 - 0.2
22/06:00pm 15.3 12.3 12.6 84 1.5 SSE 20 24 11 13 1029.2 1029.2 0.2
22/05:30pm 14.8 10.2 11.2 79 1.9 SSE 26 32 14 17 1028.8 - 0.2
22/05:00pm 15.8 10.9 12.4 80 1.9 S 30 35 16 19 1028.6 1028.6 0.2
22/04:30pm 16.0 11.2 11.8 76 2.3 S 28 32 15 17 1028.4 - 0.2
22/04:00pm 16.5 12.4 12.7 78 2.1 S 26 32 14 17 1028.3 1028.3 0.2
22/03:30pm 16.4 11.8 12.2 76 2.3 S 28 32 15 17 1028.2 - 0.2
22/03:00pm 16.6 12.0 12.4 76 2.3 S 28 32 15 17 1028.5 1028.5 0.2
22/02:30pm 16.3 12.0 11.9 75 2.4 S 26 30 14 16 1028.6 - 0.2
22/02:00pm 16.6 12.5 12.6 77 2.2 S 26 32 14 17 1028.6 1028.6 0.2
22/01:30pm 16.5 13.0 12.1 75 2.4 S 22 28 12 15 1028.9 - 0.2
22/01:00pm 16.2 13.2 12.6 79 2.0 S 20 26 11 14 1029.1 1029.1 0.2
22/12:30pm 16.2 13.4 12.7 80 1.9 SSW 19 24 10 13 1029.6 - 0.2
22/12:00pm 16.1 13.7 12.5 79 2.0 SSW 17 26 9 14 1030.1 1030.1 0.2
22/11:30am 15.9 14.0 13.0 83 1.6 SSW 15 20 8 11 1030.5 - 0.2
22/11:00am 15.3 13.6 12.6 84 1.5 SSW 13 19 7 10 1031.1 1031.1 0.0
22/10:30am 15.0 13.8 12.7 86 1.3 SSW 11 15 6 8 1031.3 - 0.0
22/10:00am 14.7 12.8 13.1 90 0.9 SSW 15 20 8 11 1031.4 1031.4 0.0
22/09:30am 14.4 12.8 12.8 90 0.9 SSW 13 19 7 10 1031.4 - 0.0
22/09:00am 14.3 12.8 13.2 93 0.6 SW 13 19 7 10 1031.2 1031.2 22.8
22/08:30am 13.9 13.1 13.0 94 0.5 SW 9 13 5 7 1031.1 - 22.8
22/08:00am 13.6 12.4 12.7 94 0.5 SW 11 15 6 8 1030.7 1030.7 22.8
22/07:30am 13.6 12.8 12.8 95 0.4 SW 9 15 5 8 1030.3 - 22.8
22/07:00am 13.6 11.7 13.0 96 0.3 SSW 15 19 8 10 1030.1 1030.1 21.4
22/06:30am 13.4 11.8 12.8 96 0.3 SSW 13 20 7 11 1029.8 - 18.4
22/06:00am 13.0 11.6 12.1 94 0.5 SW 11 17 6 9 1029.4 1029.4 18.2
22/05:30am 13.6 12.3 12.5 93 0.6 SSW 11 15 6 8 1029.2 - 18.0
22/05:00am 13.7 12.4 12.4 92 0.7 S 11 15 6 8 1029.2 1029.2 16.4
22/04:30am 14.1 11.7 12.7 91 0.8 S 17 24 9 13 1028.9 - 14.8
22/04:00am 13.4 12.3 11.8 90 0.8 S 9 15 5 8 1028.5 1028.5 14.8
22/03:30am 14.0 12.7 12.6 91 0.8 S 11 20 6 11 1028.3 - 14.6
22/03:00am 13.4 12.7 12.1 92 0.7 W 7 9 4 5 1028.6 1028.6 14.6
22/02:30am 14.0 11.2 12.6 91 0.8 S 19 28 10 15 1028.6 - 14.6
22/02:00am 14.5 10.5 12.9 90 0.9 S 26 33 14 18 1028.6 1028.6 14.4
22/01:30am 14.6 11.6 12.5 87 1.1 S 20 28 11 15 1028.9 - 13.8
22/01:00am 14.5 12.4 12.4 87 1.1 S 15 20 8 11 1029.3 1029.3 13.8
22/12:30am 14.4 12.5 11.7 84 1.5 SSE 13 19 7 10 1029.4 - 13.8
22/12:00am 14.4 12.4 11.6 83 1.5 E 13 19 7 10 1029.2 1029.2 13.8
 
Date/Time
EST
Tmp

°C
App
Tmp
°C
Dew
Point
°C
Rel
Hum
%
Delta-T

°C
Wind Press
QNH
hPa
Press
MSL
hPa
Rain
since
9 am
mm
Dir
 
Spd
km/h
Gust
km/h
Spd
kts
Gust
kts
21/11:30pm 13.9 10.8 12.1 89 1.0 E 20 28 11 15 1029.4 - 13.8
21/11:00pm 14.3 10.4 13.2 93 0.6 E 26 35 14 19 1029.4 1029.4 13.8
21/10:30pm 13.8 9.6 12.5 92 0.7 E 26 35 14 19 1029.2 - 13.4
21/10:00pm 13.6 9.3 12.0 90 0.9 ENE 26 37 14 20 1029.3 1029.3 12.6
21/09:58pm 13.5 8.7 11.7 89 1.0 ENE 28 37 15 20 1029.3 - 12.6
21/09:55pm 14.0 7.1 11.7 86 1.2 E 39 48 21 26 1029.3 - 10.0
21/09:30pm 14.3 9.9 12.9 91 0.8 SE 28 33 15 18 1029.1 - 9.8
21/09:00pm 13.8 8.6 12.7 93 0.6 SSE 32 37 17 20 1028.9 1028.9 9.8
21/08:30pm 13.9 11.0 13.0 94 0.5 SSE 20 24 11 13 1029.0 - 9.4
21/08:00pm 13.7 10.8 12.8 94 0.5 SE 20 28 11 15 1028.8 1028.8 9.0
21/07:30pm 14.3 11.1 13.2 93 0.6 SSE 22 28 12 15 1028.6 - 8.2
21/07:00pm 13.9 11.2 12.8 93 0.6 S 19 26 10 14 1028.5 1028.5 8.2
21/06:30pm 13.9 9.0 12.6 92 0.7 S 30 35 16 19 1028.2 - 8.2
21/06:00pm 13.8 10.0 12.5 92 0.7 S 24 32 13 17 1028.0 1028.0 7.8
21/05:30pm 13.8 7.5 12.4 91 0.8 S 37 46 20 25 1027.7 - 5.8
21/05:22pm 14.0 9.6 12.9 93 0.6 S 28 43 15 23 1027.5 - 5.6
21/05:00pm 14.0 11.5 12.4 90 0.9 S 17 24 9 13 1027.5 1027.5 4.4
21/04:30pm 14.3 8.7 12.0 86 1.2 S 33 39 18 21 1027.0 - 4.2
21/04:00pm 14.7 9.1 12.0 84 1.5 S 33 41 18 22 1026.6 1026.6 4.2
21/03:30pm 14.1 8.8 12.5 90 0.9 S 32 39 17 21 1026.4 - 4.2
21/03:17pm 14.3 7.0 12.7 90 0.9 S 43 50 23 27 1026.2 - 4.2
21/03:06pm 14.7 10.4 13.1 90 0.9 SE 28 46 15 25 1026.1 - 4.2
21/03:00pm 14.5 11.6 13.0 91 0.8 SE 20 32 11 17 1026.2 1026.2 4.2
21/02:30pm 15.4 10.8 12.3 82 1.7 S 28 37 15 20 1026.2 - 0.0
21/02:00pm 16.3 9.9 12.1 76 2.3 S 37 44 20 24 1026.2 1026.2 0.0
21/01:30pm 15.8 10.0 11.4 75 2.4 S 33 39 18 21 1026.4 - 0.0
21/01:00pm 15.9 11.5 12.8 82 1.7 S 28 39 15 21 1026.8 1026.8 0.0
21/12:30pm 15.4 11.9 12.3 82 1.7 SSW 22 33 12 18 1027.2 - 0.0
21/12:00pm 15.9 12.2 12.6 81 1.8 S 24 33 13 18 1027.5 1027.5 0.0
21/11:30am 15.1 11.2 12.2 83 1.6 S 24 32 13 17 1027.9 - 0.0
21/11:00am 15.1 10.8 12.2 83 1.6 S 26 35 14 19 1028.2 1028.2 0.0
21/10:30am 15.0 12.3 11.8 81 1.7 SSW 17 26 9 14 1028.4 - 0.0
21/10:00am 14.2 12.6 11.5 84 1.4 SW 11 19 6 10 1028.5 1028.5 0.0
21/09:30am 13.0 11.8 11.7 92 0.7 WSW 9 15 5 8 1028.5 - 0.0
21/09:00am 11.8 10.0 10.7 93 0.6 W 11 20 6 11 1028.4 1028.4 2.6
21/08:30am 11.2 8.9 10.3 94 0.5 W 13 19 7 10 1028.3 - 2.6
21/08:00am 11.6 9.4 10.7 94 0.5 WSW 13 20 7 11 1028.1 1028.1 2.2
21/07:30am 11.0 9.0 10.1 94 0.5 W 11 15 6 8 1027.8 - 1.8
21/07:00am 11.0 8.6 9.9 93 0.6 WSW 13 20 7 11 1027.6 1027.6 1.6
21/06:30am 11.4 8.6 10.0 91 0.7 SW 15 24 8 13 1027.3 - 1.0
21/06:00am 11.5 8.3 10.1 91 0.7 WSW 17 22 9 12 1026.9 1026.9 1.0
21/05:30am 11.3 9.3 10.0 92 0.7 WSW 11 17 6 9 1026.6 - 1.0
21/05:00am 11.7 9.7 10.1 90 0.8 WSW 11 17 6 9 1026.5 1026.5 1.0
21/04:30am 11.8 9.0 10.0 89 0.9 SW 15 20 8 11 1026.4 - 1.0
21/04:00am 11.7 9.4 10.3 91 0.7 SW 13 19 7 10 1026.3 1026.3 1.0
21/03:30am 11.7 9.0 10.3 91 0.7 WSW 15 20 8 11 1026.1 - 1.0
21/03:00am 11.8 9.4 10.0 89 0.9 WSW 13 22 7 12 1026.0 1026.0 1.0
21/02:30am 11.8 9.0 10.0 89 0.9 WSW 15 22 8 12 1026.1 - 1.0
21/02:00am 12.1 9.7 10.2 88 1.0 WSW 13 20 7 11 1026.2 1026.2 1.0
21/01:30am 12.3 10.3 10.2 87 1.1 WSW 11 19 6 10 1026.3 - 1.0
21/01:00am 13.3 12.1 10.3 82 1.5 SW 7 13 4 7 1026.4 1026.4 1.0
21/12:30am 14.7 9.4 9.9 73 2.5 S 28 33 15 18 1026.2 - 1.0
21/12:00am 14.8 8.6 10.0 73 2.5 S 33 39 18 21 1026.2 1026.2 1.0
 
Date/Time
EST
Tmp

°C
App
Tmp
°C
Dew
Point
°C
Rel
Hum
%
Delta-T

°C
Wind Press
QNH
hPa
Press
MSL
hPa
Rain
since
9 am
mm
Dir
 
Spd
km/h
Gust
km/h
Spd
kts
Gust
kts
20/11:30pm 14.5 8.5 10.1 75 2.3 S 32 37 17 20 1026.0 - 1.0
20/11:00pm 13.9 11.1 11.2 84 1.4 S 17 22 9 12 1026.4 1026.4 1.0
20/10:58pm 14.1 11.7 11.3 83 1.5 S 15 20 8 11 1026.4 - 1.0
20/10:30pm 13.5 6.7 10.7 83 1.5 SSE 37 44 20 24 1026.1 - 1.0
20/10:00pm 14.7 9.2 10.7 77 2.1 S 30 33 16 18 1026.1 1026.1 0.4
20/09:30pm 14.7 8.2 10.5 76 2.2 S 35 46 19 25 1026.3 - 0.4
20/09:00pm 14.7 7.0 10.3 75 2.3 S 41 48 22 26 1026.1 1026.1 0.4
20/08:30pm 14.8 8.0 10.8 77 2.1 S 37 44 20 24 1026.1 - 0.4
20/08:00pm 15.0 7.9 11.0 77 2.1 S 39 46 21 25 1025.7 1025.7 0.4
20/07:30pm 14.8 7.6 10.4 75 2.3 S 39 46 21 25 1025.6 - 0.4
20/07:00pm 14.5 7.6 11.5 82 1.6 S 39 50 21 27 1025.3 1025.3 0.4
20/06:30pm 14.6 6.7 11.6 82 1.6 S 44 56 24 30 1025.0 - 0.4
20/06:00pm 14.9 8.2 10.9 77 2.1 S 37 48 20 26 1024.8 1024.8 0.4
20/05:30pm 14.5 8.4 9.9 74 2.4 S 32 43 17 23 1024.6 - 0.4
20/05:00pm 14.1 7.5 10.1 77 2.1 S 35 43 19 23 1024.4 1024.4 0.4
20/04:30pm 13.7 8.2 10.5 81 1.7 S 30 37 16 20 1024.3 - 0.4
20/04:00pm 13.8 7.4 10.6 81 1.7 S 35 46 19 25 1024.1 1024.1 0.4
20/03:30pm 13.6 5.6 11.1 85 1.3 S 44 56 24 30 1024.0 - 0.4
20/03:00pm 14.1 7.8 9.7 75 2.3 SSW 33 46 18 25 1023.9 1023.9 0.2
20/02:30pm 13.6 7.3 9.8 78 2.0 S 33 46 18 25 1023.8 - 0.2
20/02:06pm 14.2 8.7 10.4 78 2.0 S 30 48 16 26 1023.6 - 0.2
20/02:00pm 14.4 8.5 10.4 77 2.1 SSW 32 44 17 24 1023.6 1023.6 0.2
20/01:30pm 13.7 7.0 11.0 84 1.4 S 37 52 20 28 1023.6 - 0.2
20/01:12pm 13.8 7.8 10.0 78 2.0 S 32 52 17 28 1023.7 - 0.2
20/01:00pm 13.5 7.9 10.1 80 1.7 SSW 30 48 16 26 1023.8 1023.8 0.2
20/12:52pm 13.6 8.4 10.2 80 1.8 SSW 28 48 15 26 1023.8 - 0.2
20/12:30pm 13.7 10.2 10.1 79 1.9 SSW 19 28 10 15 1024.1 - 0.2
20/12:00pm 13.2 8.0 10.2 82 1.5 SSW 28 41 15 22 1024.5 1024.5 0.2
20/11:54am 13.8 8.2 10.0 78 2.0 S 30 41 16 22 1024.4 - 0.2
20/11:30am 13.9 12.1 10.9 82 1.6 SW 11 19 6 10 1024.7 - 0.2
20/11:00am 12.5 9.3 10.0 85 1.3 SW 17 28 9 15 1024.9 1024.9 0.2
20/10:30am 13.8 10.1 9.5 75 2.2 SSW 19 28 10 15 1024.8 - 0.0
20/10:00am 13.7 8.9 8.7 72 2.5 SSW 24 35 13 19 1024.5 1024.5 0.0
20/09:30am 13.6 9.0 9.6 77 2.0 SSW 24 35 13 19 1024.1 - 0.0
20/09:00am 13.5 8.4 9.2 75 2.2 SSW 26 37 14 20 1023.9 1023.9 15.2
20/08:30am 12.8 9.2 8.5 75 2.1 SW 17 26 9 14 1023.7 - 15.2
20/08:00am 12.4 8.7 7.9 74 2.2 SW 17 30 9 16 1023.6 1023.6 15.2
20/07:30am 12.5 9.2 8.2 75 2.1 SW 15 26 8 14 1023.3 - 15.2
20/07:00am 11.8 8.4 7.5 75 2.1 SW 15 24 8 13 1022.8 1022.8 15.2
20/06:30am 11.5 8.1 7.6 77 1.9 SW 15 26 8 14 1022.5 - 15.2
20/06:00am 11.2 7.7 7.3 77 1.9 SW 15 26 8 14 1022.2 1022.2 15.2
20/05:30am 11.3 7.9 7.6 78 1.8 SW 15 24 8 13 1021.7 - 15.2
20/05:00am 11.3 7.8 7.0 75 2.0 SW 15 26 8 14 1021.6 1021.6 15.2
20/04:30am 11.1 7.1 6.6 74 2.1 WSW 17 24 9 13 1021.3 - 15.2
20/04:00am 11.1 7.5 6.8 75 2.0 SW 15 24 8 13 1021.1 1021.1 15.2
20/03:30am 11.4 7.5 6.9 74 2.1 SW 17 26 9 14 1020.8 - 15.2
20/03:00am 11.8 7.3 6.9 72 2.3 SW 20 35 11 19 1020.6 1020.6 15.2
20/02:30am 12.0 8.6 7.5 74 2.2 SW 15 26 8 14 1020.5 - 15.2
20/02:00am 12.3 8.6 7.8 74 2.2 SW 17 28 9 15 1020.4 1020.4 15.2
20/01:30am 12.5 8.8 8.0 74 2.2 SW 17 28 9 15 1020.4 - 15.2
20/01:00am 12.6 9.1 8.7 77 1.9 SW 17 30 9 16 1020.4 1020.4 15.2
20/12:30am 12.7 8.8 8.8 77 2.0 SW 19 33 10 18 1020.3 - 15.2
20/12:00am 12.4 8.9 8.9 79 1.7 SW 17 32 9 17 1020.3 1020.3 15.2
 
Date/Time
EST
Tmp

°C
App
Tmp
°C
Dew
Point
°C
Rel
Hum
%
Delta-T

°C
Wind Press
QNH
hPa
Press
MSL
hPa
Rain
since
9 am
mm
Dir
 
Spd
km/h
Gust
km/h
Spd
kts
Gust
kts
19/11:30pm 12.4 9.1 9.4 82 1.5 SW 17 26 9 14 1020.3 - 15.2
19/11:00pm 12.5 9.2 9.5 82 1.5 SW 17 28 9 15 1020.4 1020.4 15.2
19/10:30pm 12.8 9.1 10.0 83 1.4 SW 20 30 11 16 1020.2 - 15.2
19/10:00pm 12.9 8.2 10.6 86 1.2 SW 26 54 14 29 1020.2 1020.2 15.2
19/09:43pm 14.3 9.5 11.6 84 1.4 SSW 28 50 15 27 1019.8 - 14.8

Latest Capital City Observations: Canberra | Sydney | Melbourne | Brisbane | Adelaide | Perth | Hobart | Darwin

Other Formats:

Comma delimited format used in spreadsheet applications
http://www.bom.gov.au/fwo/IDN60901/IDN60901.95770.axf

JavaScript Object Notation format (JSON) in row-major order
http://www.bom.gov.au/fwo/IDN60901/IDN60901.95770.json